createdAt,value
2019-03-30T00:01:04.709Z,97789.58
2019-03-30T00:03:35.370Z,97786.78
2019-03-30T00:06:06.149Z,97797.36
2019-03-30T00:08:36.970Z,97790.66
2019-03-30T00:11:07.826Z,97799.03
2019-03-30T00:13:38.509Z,97797.52
2019-03-30T00:16:09.272Z,97791.39
2019-03-30T00:18:41.553Z,97788.48
2019-03-30T00:21:12.465Z,97783.30
2019-03-30T00:23:44.786Z,97778.00
2019-03-30T00:26:15.572Z,97780.29
2019-03-30T00:28:47.200Z,97778.52
2019-03-30T00:31:18.865Z,97781.98
2019-03-30T00:33:51.201Z,97775.08
2019-03-30T00:36:22.047Z,97777.14
2019-03-30T00:38:52.941Z,97771.95
2019-03-30T00:41:23.770Z,97767.11
2019-03-30T00:43:56.160Z,97773.33
2019-03-30T00:46:27.363Z,97774.52
2019-03-30T00:48:58.063Z,97771.38
2019-03-30T00:51:28.835Z,97779.64
2019-03-30T00:54:00.328Z,97779.02
2019-03-30T00:56:31.099Z,97776.20
2019-03-30T00:59:02.666Z,97767.98
2019-03-30T01:01:33.502Z,97780.39
2019-03-30T01:04:04.266Z,97781.97
2019-03-30T01:06:35.930Z,97781.02
2019-03-30T01:09:09.020Z,97779.31
2019-03-30T01:11:39.866Z,97776.18
2019-03-30T01:14:10.546Z,97771.96
2019-03-30T01:16:41.365Z,97773.98
2019-03-30T01:19:12.102Z,97764.44
2019-03-30T01:21:42.866Z,97769.28
2019-03-30T01:24:13.631Z,97765.34
2019-03-30T01:26:44.329Z,97765.48
2019-03-30T01:29:16.294Z,97763.77
2019-03-30T01:31:47.226Z,97767.16
2019-03-30T01:34:19.024Z,97767.16
2019-03-30T01:36:49.729Z,97759.00
2019-03-30T01:39:20.687Z,97760.67
2019-03-30T01:41:51.386Z,97773.84
2019-03-30T01:44:22.106Z,97767.27
2019-03-30T01:46:52.800Z,97764.92
2019-03-30T01:49:24.312Z,97763.53
2019-03-30T01:51:55.048Z,97763.84
2019-03-30T01:54:25.879Z,97763.70
2019-03-30T01:56:56.644Z,97757.74
2019-03-30T01:59:27.422Z,97755.86
2019-03-30T02:01:59.050Z,97754.05
2019-03-30T02:04:29.888Z,97754.92
2019-03-30T02:07:00.681Z,97753.03
2019-03-30T02:09:31.452Z,97753.20
2019-03-30T02:12:02.367Z,97747.73
2019-03-30T02:14:33.120Z,97751.25
2019-03-30T02:17:03.876Z,97750.08
2019-03-30T02:19:34.660Z,97751.47
2019-03-30T02:22:06.981Z,97744.26
2019-03-30T02:24:37.770Z,97742.69
2019-03-30T02:27:08.529Z,97740.98
2019-03-30T02:29:39.203Z,97740.50
2019-03-30T02:32:10.131Z,97740.21
2019-03-30T02:34:40.908Z,97736.30
2019-03-30T02:37:13.305Z,97740.23
2019-03-30T02:39:45.593Z,97731.69
2019-03-30T02:42:16.396Z,97729.56
2019-03-30T02:44:47.113Z,97729.34
2019-03-30T02:47:17.794Z,97730.97
2019-03-30T02:49:48.578Z,97731.30
2019-03-30T02:52:19.299Z,97734.34
2019-03-30T02:54:50.029Z,97731.44
2019-03-30T02:57:21.544Z,97726.41
2019-03-30T02:59:52.241Z,97721.53
2019-03-30T03:02:47.727Z,97725.47
2019-03-30T03:05:45.037Z,97725.23
2019-03-30T03:08:42.234Z,97717.01
2019-03-30T03:11:40.504Z,97726.41
2019-03-30T03:14:36.542Z,97728.30
2019-03-30T03:17:33.679Z,97724.23
2019-03-30T03:20:29.703Z,97733.95
2019-03-30T03:23:26.257Z,97731.14
2019-03-30T03:26:22.473Z,97734.41
2019-03-30T03:29:18.823Z,97731.14
2019-03-30T03:32:15.469Z,97725.03
2019-03-30T03:35:12.423Z,97726.73
2019-03-30T03:38:10.411Z,97723.78
2019-03-30T03:41:06.748Z,97723.78
2019-03-30T03:44:04.840Z,97738.16
2019-03-30T03:47:00.891Z,97731.20
2019-03-30T03:49:58.150Z,97735.11
2019-03-30T03:52:53.424Z,97739.85
2019-03-30T03:55:50.029Z,97737.62
2019-03-30T03:58:45.674Z,97736.21
2019-03-30T04:01:42.626Z,97738.64
2019-03-30T04:04:40.965Z,97730.56
2019-03-30T04:07:38.109Z,97730.25
2019-03-30T04:10:35.231Z,97732.76
2019-03-30T04:13:31.254Z,97740.42
2019-03-30T04:16:29.028Z,97746.38
2019-03-30T04:19:25.177Z,97750.44
2019-03-30T04:22:21.643Z,97743.72
2019-03-30T04:25:20.401Z,97748.72
2019-03-30T04:28:16.486Z,97746.83
2019-03-30T04:31:14.354Z,97743.94
2019-03-30T04:34:11.406Z,97747.78
2019-03-30T04:37:09.629Z,97740.73
2019-03-30T04:40:06.895Z,97744.82
2019-03-30T04:43:04.051Z,97747.33
2019-03-30T04:46:02.107Z,97748.88
2019-03-30T04:48:58.439Z,97746.22
2019-03-30T04:51:57.700Z,97747.92
2019-03-30T04:54:59.656Z,97748.83
2019-03-30T04:57:57.714Z,97751.78
2019-03-30T05:00:54.157Z,97752.22
2019-03-30T05:03:51.052Z,97753.91
2019-03-30T05:06:49.180Z,97754.65
2019-03-30T05:09:45.077Z,97755.73
2019-03-30T05:12:42.504Z,97761.28
2019-03-30T05:15:39.129Z,97766.37
2019-03-30T05:18:36.309Z,97765.45
2019-03-30T05:21:32.436Z,97769.66
2019-03-30T05:24:30.766Z,97770.91
2019-03-30T05:27:27.861Z,97775.45
2019-03-30T05:30:24.931Z,97780.62
2019-03-30T05:33:22.370Z,97775.31
2019-03-30T05:36:19.428Z,97782.52
2019-03-30T05:39:17.751Z,97780.97
2019-03-30T05:42:16.002Z,97781.52
2019-03-30T05:45:15.419Z,97785.13
2019-03-30T05:48:12.534Z,97778.49
2019-03-30T05:51:08.830Z,97781.45
2019-03-30T05:54:05.016Z,97778.84
2019-03-30T05:57:03.201Z,97786.05
2019-03-30T06:00:00.299Z,97789.16
2019-03-30T06:02:57.577Z,97788.55
2019-03-30T06:05:56.544Z,97785.12
2019-03-30T06:08:53.638Z,97786.72
2019-03-30T06:11:49.528Z,97790.33
2019-03-30T06:14:46.567Z,97788.48
2019-03-30T06:17:42.641Z,97785.53
2019-03-30T06:20:39.754Z,97786.03
2019-03-30T06:23:35.622Z,97785.88
2019-03-30T06:26:33.739Z,97777.45
2019-03-30T06:29:30.639Z,97781.39
2019-03-30T06:32:26.257Z,97779.68
2019-03-30T06:35:24.445Z,97774.05
2019-03-30T06:38:20.721Z,97774.67
2019-03-30T06:41:18.213Z,97772.89
2019-03-30T06:44:15.290Z,97765.91
2019-03-30T06:47:12.354Z,97771.06
2019-03-30T06:50:09.507Z,97765.43
2019-03-30T06:53:05.470Z,97764.15
2019-03-30T06:56:02.646Z,97766.04
2019-03-30T06:58:59.308Z,97766.80
2019-03-30T07:01:56.414Z,97760.98
2019-03-30T07:04:52.572Z,97766.03
2019-03-30T07:07:51.880Z,97756.51
2019-03-30T07:10:47.915Z,97758.69
2019-03-30T07:13:45.276Z,97756.30
2019-03-30T07:16:42.504Z,97758.99
2019-03-30T07:19:39.896Z,97752.72
2019-03-30T07:22:37.009Z,97760.84
2019-03-30T07:25:32.417Z,97759.83
2019-03-30T07:28:29.983Z,97762.08
2019-03-30T07:31:26.134Z,97756.81
2019-03-30T07:34:23.258Z,97754.11
2019-03-30T07:37:21.691Z,97757.22
2019-03-30T07:40:17.921Z,97749.73
2019-03-30T07:43:16.268Z,97751.06
2019-03-30T07:46:13.366Z,97751.23
2019-03-30T07:49:10.510Z,97760.22
2019-03-30T07:52:05.718Z,97757.45
2019-03-30T07:55:03.078Z,97753.38
2019-03-30T07:57:59.940Z,97755.13
2019-03-30T08:00:56.765Z,97750.25
2019-03-30T08:03:54.822Z,97750.25
2019-03-30T08:06:52.327Z,97750.25
2019-03-30T08:09:50.531Z,97750.17
2019-03-30T08:12:46.845Z,97742.80
2019-03-30T08:15:44.111Z,97743.81
2019-03-30T08:18:41.363Z,97738.86
2019-03-30T08:21:38.934Z,97742.09
2019-03-30T08:24:34.820Z,97732.84
2019-03-30T08:27:32.599Z,97726.95
2019-03-30T08:30:30.124Z,97729.09
2019-03-30T08:33:26.418Z,97730.39
2019-03-30T08:36:23.567Z,97727.52
2019-03-30T08:39:19.912Z,97730.67
2019-03-30T08:42:17.455Z,97721.80
2019-03-30T08:45:14.679Z,97727.14
2019-03-30T08:48:13.677Z,97722.37
2019-03-30T08:51:13.653Z,97719.38
2019-03-30T08:54:19.335Z,97718.10
2019-03-30T08:57:17.698Z,97712.31
2019-03-30T09:00:13.957Z,97713.41
2019-03-30T09:03:11.415Z,97708.13
2019-03-30T09:06:08.904Z,97717.79
2019-03-30T09:09:07.085Z,97711.67
2019-03-30T09:12:03.697Z,97702.45
2019-03-30T09:15:02.385Z,97698.16
2019-03-30T09:18:00.130Z,97703.61
2019-03-30T09:20:57.423Z,97696.30
2019-03-30T09:24:08.427Z,97693.92
2019-03-30T09:26:51.007Z,97687.55
2019-03-30T09:29:48.403Z,97693.08
2019-03-30T09:32:45.321Z,97685.73
2019-03-30T09:35:42.141Z,97680.70
2019-03-30T09:38:39.787Z,97680.16
2019-03-30T09:41:35.854Z,97677.95
2019-03-30T09:44:33.117Z,97671.33
2019-03-30T09:47:31.601Z,97669.67
2019-03-30T09:50:28.841Z,97665.56
2019-03-30T09:53:25.492Z,97658.58
2019-03-30T09:56:24.110Z,97658.58
2019-03-30T09:59:21.447Z,97658.05
2019-03-30T10:02:18.755Z,97654.30
2019-03-30T10:05:14.405Z,97649.86
2019-03-30T10:08:12.679Z,97652.64
2019-03-30T10:11:12.659Z,97645.16
2019-03-30T10:14:11.069Z,97643.55
2019-03-30T10:17:07.743Z,97635.30
2019-03-30T10:20:06.109Z,97629.58
2019-03-30T10:23:03.747Z,97625.41
2019-03-30T10:26:03.392Z,97626.38
2019-03-30T10:29:01.772Z,97623.11
2019-03-30T10:31:59.891Z,97620.66
2019-03-30T10:34:58.724Z,97613.99
2019-03-30T10:37:54.838Z,97615.81
2019-03-30T10:40:53.382Z,97614.97
2019-03-30T10:43:49.472Z,97610.44
2019-03-30T10:46:47.072Z,97602.20
2019-03-30T10:49:49.664Z,97604.35
2019-03-30T10:52:49.244Z,97606.22
2019-03-30T10:55:47.005Z,97604.59
2019-03-30T10:58:45.093Z,97597.03
2019-03-30T11:01:42.122Z,97594.16
2019-03-30T11:04:40.452Z,97584.11
2019-03-30T11:07:38.307Z,97583.80
2019-03-30T11:10:37.284Z,97578.82
2019-03-30T11:13:34.724Z,97580.52
2019-03-30T11:16:31.845Z,97575.88
2019-03-30T11:19:30.938Z,97566.54
2019-03-30T11:22:27.832Z,97562.31
2019-03-30T11:25:26.655Z,97556.80
2019-03-30T11:28:23.659Z,97554.30
2019-03-30T11:31:21.630Z,97548.33
2019-03-30T11:34:19.606Z,97541.61
2019-03-30T11:37:16.399Z,97533.96
2019-03-30T11:40:14.943Z,97540.84
2019-03-30T11:43:12.032Z,97534.46
2019-03-30T11:46:09.237Z,97532.36
2019-03-30T11:49:06.953Z,97530.66
2019-03-30T11:52:05.508Z,97518.31
2019-03-30T11:55:02.245Z,97521.34
2019-03-30T11:58:00.113Z,97518.84
2019-03-30T12:00:57.956Z,97508.21
2019-03-30T12:03:55.855Z,97510.34
2019-03-30T12:06:54.808Z,97506.09
2019-03-30T12:09:51.367Z,97494.19
2019-03-30T12:12:49.658Z,97491.64
2019-03-30T12:15:46.699Z,97495.04
2019-03-30T12:18:44.603Z,97484.41
2019-03-30T12:21:42.138Z,97478.86
2019-03-30T12:24:41.075Z,97479.69
2019-03-30T12:27:38.204Z,97473.73
2019-03-30T12:30:37.021Z,97474.58
2019-03-30T12:33:35.166Z,97464.31
2019-03-30T12:36:33.033Z,97465.07
2019-03-30T12:39:30.187Z,97462.00
2019-03-30T12:42:28.455Z,97461.61
2019-03-30T12:45:35.267Z,97458.65
2019-03-30T12:48:30.050Z,97459.94
2019-03-30T12:51:28.816Z,97444.55
2019-03-30T12:54:27.947Z,97440.19
2019-03-30T12:57:28.510Z,97435.07
2019-03-30T13:00:26.145Z,97430.81
2019-03-30T13:03:27.528Z,97430.81
2019-03-30T13:06:26.216Z,97423.58
2019-03-30T13:09:24.152Z,97419.25
2019-03-30T13:12:21.835Z,97408.59
2019-03-30T13:15:19.715Z,97407.69
2019-03-30T13:18:29.732Z,97407.74
2019-03-30T13:21:27.795Z,97402.63
2019-03-30T13:24:26.748Z,97395.75
2019-03-30T13:27:23.883Z,97402.51
2019-03-30T13:30:21.032Z,97398.09
2019-03-30T13:33:17.250Z,97394.03
2019-03-30T13:36:16.116Z,97393.44
2019-03-30T13:39:12.571Z,97386.44
2019-03-30T13:42:11.169Z,97380.38
2019-03-30T13:45:09.671Z,97380.73
2019-03-30T13:48:06.717Z,97397.49
2019-03-30T13:51:04.840Z,97370.21
2019-03-30T13:54:03.059Z,97376.12
2019-03-30T13:57:01.061Z,97369.23
2019-03-30T13:59:58.875Z,97370.11
2019-03-30T14:02:56.949Z,97370.00
2019-03-30T14:05:54.365Z,97367.70
2019-03-30T14:08:52.137Z,97364.17
2019-03-30T14:11:52.333Z,97363.09
2019-03-30T14:14:51.645Z,97354.73
2019-03-30T14:17:49.821Z,97356.12
2019-03-30T14:20:47.781Z,97344.39
2019-03-30T14:23:46.051Z,97337.94
2019-03-30T14:26:44.271Z,97336.14
2019-03-30T14:29:41.099Z,97335.08
2019-03-30T14:32:40.250Z,97331.53
2019-03-30T14:35:37.238Z,97330.46
2019-03-30T14:38:35.142Z,97330.97
2019-03-30T14:41:33.285Z,97328.43
2019-03-30T14:44:30.500Z,97322.30
2019-03-30T14:47:34.168Z,97316.97
2019-03-30T14:50:33.039Z,97316.58
2019-03-30T14:53:33.478Z,97307.80
2019-03-30T14:56:45.472Z,97302.93
2019-03-30T14:59:34.187Z,97294.23
2019-03-30T15:02:32.146Z,97291.80
2019-03-30T15:05:29.350Z,97285.94
2019-03-30T15:08:30.285Z,97280.67
2019-03-30T15:11:27.697Z,97286.58
2019-03-30T15:14:27.063Z,97278.55
2019-03-30T15:17:24.991Z,97269.97
2019-03-30T15:20:22.101Z,97271.86
2019-03-30T15:23:21.247Z,97276.02
2019-03-30T15:26:18.032Z,97270.09
2019-03-30T15:29:15.996Z,97264.75
2019-03-30T15:32:12.944Z,97267.05
2019-03-30T15:35:10.932Z,97259.19
2019-03-30T15:38:09.099Z,97254.99
2019-03-30T15:41:07.249Z,97255.20
2019-03-30T15:44:06.522Z,97251.09
2019-03-30T15:47:05.159Z,97244.88
2019-03-30T15:50:03.409Z,97239.59
2019-03-30T15:53:01.185Z,97244.94
2019-03-30T15:55:58.341Z,97241.59
2019-03-30T15:59:01.801Z,97235.77
2019-03-30T16:01:59.767Z,97236.24
2019-03-30T16:05:02.494Z,97236.89
2019-03-30T16:08:00.397Z,97238.01
2019-03-30T16:10:58.456Z,97236.31
2019-03-30T16:13:57.140Z,97231.66
2019-03-30T16:16:54.864Z,97233.15
2019-03-30T16:19:51.763Z,97229.96
2019-03-30T16:22:50.783Z,97230.67
2019-03-30T16:25:48.748Z,97233.12
2019-03-30T16:28:46.779Z,97233.33
2019-03-30T16:31:44.176Z,97232.36
2019-03-30T16:37:05.982Z,97226.71
2019-03-30T16:39:36.582Z,97223.48
2019-03-30T16:42:07.771Z,97227.78
2019-03-30T16:44:38.427Z,97223.59
2019-03-30T16:47:09.030Z,97218.50
2019-03-30T16:49:39.678Z,97216.84
2019-03-30T16:52:10.272Z,97220.34
2019-03-30T16:54:40.898Z,97221.36
2019-03-30T16:57:11.524Z,97225.69
2019-03-30T16:59:42.281Z,97220.66
2019-03-30T17:02:12.854Z,97221.58
2019-03-30T17:04:43.434Z,97220.38
2019-03-30T17:07:13.985Z,97222.54
2019-03-30T17:09:44.640Z,97223.49
2019-03-30T17:12:15.253Z,97221.39
2019-03-30T17:14:45.914Z,97220.19
2019-03-30T17:17:16.601Z,97220.23
2019-03-30T17:19:47.252Z,97221.13
2019-03-30T17:22:17.854Z,97218.20
2019-03-30T17:24:48.508Z,97218.67
2019-03-30T17:27:19.129Z,97221.75
2019-03-30T17:29:49.706Z,97220.95
2019-03-30T17:32:20.358Z,97215.47
2019-03-30T17:34:51.006Z,97220.63
2019-03-30T17:37:21.641Z,97222.34
2019-03-30T17:39:52.298Z,97219.84
2019-03-30T17:42:22.936Z,97218.59
2019-03-30T17:44:53.594Z,97218.20
2019-03-30T17:47:24.188Z,97221.66
2019-03-30T17:49:54.831Z,97222.52
2019-03-30T17:52:25.505Z,97221.28
2019-03-30T17:54:56.884Z,97227.69
2019-03-30T17:57:27.520Z,97226.83
2019-03-30T17:59:58.205Z,97227.70
2019-03-30T18:02:29.027Z,97228.09
2019-03-30T18:04:59.628Z,97232.33
2019-03-30T18:07:30.224Z,97235.73
2019-03-30T18:10:03.517Z,97235.27
2019-03-30T18:12:33.150Z,97231.84
2019-03-30T18:15:03.774Z,97238.64
2019-03-30T18:17:34.369Z,97240.31
2019-03-30T18:20:05.102Z,97237.70
2019-03-30T18:22:35.846Z,97241.07
2019-03-30T18:25:06.695Z,97240.17
2019-03-30T18:27:37.323Z,97245.26
2019-03-30T18:30:08.793Z,97251.98
2019-03-30T18:32:40.041Z,97257.41
2019-03-30T18:35:10.797Z,97239.92
2019-03-30T18:37:41.572Z,97267.94
2019-03-30T18:40:16.913Z,97266.60
2019-03-30T18:42:47.580Z,97262.72
2019-03-30T18:45:27.229Z,97264.79
2019-03-30T18:48:13.707Z,97262.19
2019-03-30T18:50:44.916Z,97261.71
2019-03-30T18:53:16.695Z,97270.59
2019-03-30T18:55:47.459Z,97272.19
2019-03-30T18:58:18.072Z,97275.91
2019-03-30T19:00:48.654Z,97274.92
2019-03-30T19:03:20.257Z,97277.32
2019-03-30T19:05:51.184Z,97279.74
2019-03-30T19:08:21.819Z,97282.13
2019-03-30T19:10:52.550Z,97280.30
2019-03-30T19:13:23.168Z,97283.59
2019-03-30T19:15:53.793Z,97287.30
2019-03-30T19:18:24.444Z,97285.98
2019-03-30T19:20:55.064Z,97282.05
2019-03-30T19:23:25.801Z,97289.16
2019-03-30T19:25:56.493Z,97287.37
2019-03-30T19:28:27.317Z,97276.70
2019-03-30T19:30:57.942Z,97277.06
2019-03-30T19:33:28.636Z,97270.16
2019-03-30T19:36:00.991Z,97270.91
2019-03-30T19:38:31.655Z,97275.08
2019-03-30T19:41:02.277Z,97274.55
2019-03-30T19:43:32.897Z,97276.58
2019-03-30T19:46:03.587Z,97272.66
2019-03-30T19:48:36.934Z,97276.28
2019-03-30T19:51:06.990Z,97285.47
2019-03-30T19:53:37.740Z,97282.78
2019-03-30T19:56:08.356Z,97280.52
2019-03-30T19:58:39.034Z,97287.53
2019-03-30T20:01:09.667Z,97289.84
2019-03-30T20:03:41.311Z,97296.43
2019-03-30T20:06:12.037Z,97287.73
2019-03-30T20:08:42.636Z,97290.27
2019-03-30T20:11:13.305Z,97281.70
2019-03-30T20:13:43.962Z,97279.53
2019-03-30T20:16:14.661Z,97279.45
2019-03-30T20:18:45.317Z,97284.84
2019-03-30T20:21:16.022Z,97283.02
2019-03-30T20:23:46.657Z,97290.97
2019-03-30T20:26:17.379Z,97283.30
2019-03-30T20:28:48.069Z,97280.27
2019-03-30T20:31:18.680Z,97283.92
2019-03-30T20:33:49.273Z,97282.98
2019-03-30T20:36:20.056Z,97286.64
2019-03-30T20:38:50.685Z,97273.88
2019-03-30T20:41:21.389Z,97270.41
2019-03-30T20:43:52.097Z,97275.28
2019-03-30T20:46:22.734Z,97276.08
2019-03-30T20:48:54.581Z,97272.20
2019-03-30T20:51:25.214Z,97271.66
2019-03-30T20:53:55.827Z,97274.99
2019-03-30T20:56:26.531Z,97274.94
2019-03-30T20:58:57.256Z,97275.56
2019-03-30T21:01:27.843Z,97275.36
2019-03-30T21:03:58.443Z,97276.79
2019-03-30T21:06:29.037Z,97276.58
2019-03-30T21:08:59.752Z,97278.95
2019-03-30T21:11:30.385Z,97273.77
2019-03-30T21:14:01.029Z,97279.56
2019-03-30T21:16:31.687Z,97273.55
2019-03-30T21:19:02.325Z,97278.51
2019-03-30T21:21:33.103Z,97276.71
2019-03-30T21:24:03.770Z,97276.19
2019-03-30T21:26:34.399Z,97274.33
2019-03-30T21:29:05.100Z,97278.84
2019-03-30T21:31:35.675Z,97274.53
2019-03-30T21:34:06.359Z,97273.56
2019-03-30T21:36:36.994Z,97275.53
2019-03-30T21:39:09.196Z,97273.70
2019-03-30T21:41:39.780Z,97276.52
2019-03-30T21:44:21.359Z,97278.55
2019-03-30T21:46:42.752Z,97278.91
2019-03-30T21:49:13.358Z,97283.78
2019-03-30T21:51:44.016Z,97281.91
2019-03-30T21:54:14.563Z,97282.73
2019-03-30T21:56:45.219Z,97283.50
2019-03-30T21:59:15.828Z,97280.04
2019-03-30T22:01:46.571Z,97284.19
2019-03-30T22:04:17.188Z,97284.19
2019-03-30T22:06:47.818Z,97278.23
2019-03-30T22:09:18.559Z,97285.38
2019-03-30T22:11:49.187Z,97284.48
2019-03-30T22:14:19.849Z,97276.00
2019-03-30T22:16:50.526Z,97283.58
2019-03-30T22:19:21.123Z,97278.81
2019-03-30T22:21:51.840Z,97281.98
2019-03-30T22:24:23.253Z,97278.48
2019-03-30T22:26:53.907Z,97287.64
2019-03-30T22:29:24.546Z,97280.75
2019-03-30T22:31:55.246Z,97289.75
2019-03-30T22:34:25.844Z,97280.22
2019-03-30T22:36:56.449Z,97290.12
2019-03-30T22:39:27.058Z,97288.94
2019-03-30T22:41:57.679Z,97292.09
2019-03-30T22:44:28.316Z,97293.55
2019-03-30T22:46:58.972Z,97293.55
2019-03-30T22:49:29.643Z,97293.08
2019-03-30T22:52:00.281Z,97297.20
2019-03-30T22:54:30.856Z,97293.42
2019-03-30T22:57:01.447Z,97295.08
2019-03-30T22:59:32.012Z,97297.83
2019-03-30T23:02:02.660Z,97293.06
2019-03-30T23:04:33.262Z,97290.50
2019-03-30T23:07:03.920Z,97286.67
2019-03-30T23:09:34.528Z,97278.56
2019-03-30T23:12:05.172Z,97279.39
2019-03-30T23:14:35.781Z,97279.73
2019-03-30T23:17:06.426Z,97279.73
2019-03-30T23:19:37.077Z,97285.13
2019-03-30T23:22:07.743Z,97278.74
2019-03-30T23:24:38.377Z,97285.39
2019-03-30T23:27:08.977Z,97281.97
2019-03-30T23:29:39.662Z,97287.27
2019-03-30T23:32:10.267Z,97283.72
2019-03-30T23:34:40.928Z,97287.06
2019-03-30T23:37:11.507Z,97286.16
2019-03-30T23:39:42.108Z,97288.63
2019-03-30T23:42:12.692Z,97285.25
2019-03-30T23:44:43.269Z,97290.59
2019-03-30T23:47:13.848Z,97289.20
2019-03-30T23:49:44.451Z,97285.25
2019-03-30T23:52:15.344Z,97283.95
2019-03-30T23:54:45.989Z,97280.95
2019-03-30T23:57:18.477Z,97281.13
2019-03-30T23:59:49.095Z,97277.87
